Las Catitas, Argentina
Current Conditions -  °F | °C
As of 11:00 AM on Thursday 18 Dec 2014 (Local Time) from SAME Reporting Station
Clear Clear  
Wind Chill: 81°   Ceiling: Unl
Heat Index: 81°   Visibility: 6mi
Dew Point: 54°   Wind: 3mph
Humidity: 39%   Direction: 90°E
Pressure: 29.94"   Gusts: NA
Location:  33.3°S, 68.03°W
Report Text: SAME 181400Z 09003KT CAVOK 27/12 Q1014
Loading
Personal Weather Stations






























Interactive Weather Map New forecast layout! Learn more

10-Day Weather Forecast

Advertisements
Track Severe Weather on mobile